Time;durP1;ratioP1;P1;durP2;ratioP2;P2;SDS_P1;SDS_P2;PMS_P1;PMS_P2;Temp;Humidity;BMP_temperature;BMP_pressure;BME280_temperature;BME280_humidity;BME280_pressure;Samples;Min_cycle;Max_cycle;Signal;HPM_P1;HPM_P2
2023/01/01 00:01:21;;;;;;;81.88;47.25;;;14.40;99.90;;;;;;5062394;28;20465;-72
2023/01/01 00:03:51;;;;;;;73.15;38.45;;;14.40;99.90;;;;;;5043389;28;20392;-71
2023/01/01 00:06:17;;;;;;;76.72;42.85;;;14.40;99.90;;;;;;5059359;28;20078;-71
2023/01/01 00:08:42;;;;;;;70.93;39.33;;;14.40;99.90;;;;;;5062053;28;20025;-72
2023/01/01 00:11:09;;;;;;;53.35;27.30;;;14.40;99.90;;;;;;5059173;28;20061;-71
2023/01/01 00:13:37;;;;;;;39.80;21.42;;;14.40;99.90;;;;;;5065431;28;20020;-71
2023/01/01 00:16:11;;;;;;;77.88;41.85;;;14.40;99.90;;;;;;5062289;28;20100;-71
2023/01/01 00:18:38;;;;;;;57.70;30.50;;;14.40;99.90;;;;;;5059304;28;20425;-71
2023/01/01 00:21:08;;;;;;;43.83;21.33;;;14.40;99.90;;;;;;5068247;28;20033;-71
2023/01/01 00:23:35;;;;;;;36.45;19.02;;;14.40;99.90;;;;;;5069278;28;20489;-71
2023/01/01 00:26:00;;;;;;;58.00;34.50;;;14.30;99.90;;;;;;5044401;28;20017;-71
2023/01/01 00:28:26;;;;;;;42.42;17.77;;;14.30;99.90;;;;;;5040282;28;20339;-71
2023/01/01 00:30:52;;;;;;;35.15;17.48;;;14.30;99.90;;;;;;5058124;28;20486;-71
2023/01/01 00:33:18;;;;;;;33.80;15.40;;;14.30;99.90;;;;;;5051553;28;20048;-72
2023/01/01 00:35:43;;;;;;;39.28;17.88;;;14.30;99.90;;;;;;5064322;28;20473;-71
2023/01/01 00:38:09;;;;;;;40.85;17.42;;;14.30;99.90;;;;;;5066787;28;20017;-71
2023/01/01 00:40:34;;;;;;;35.20;15.63;;;14.30;99.90;;;;;;5061664;28;20025;-71
2023/01/01 00:43:00;;;;;;;35.47;14.52;;;14.30;99.90;;;;;;5067467;28;20024;-71
2023/01/01 00:45:25;;;;;;;27.25;12.02;;;14.30;99.90;;;;;;5057354;28;20028;-71
2023/01/01 00:47:53;;;;;;;29.27;12.05;;;14.30;99.90;;;;;;5064377;28;20034;-71
2023/01/01 00:50:20;;;;;;;26.40;11.90;;;14.40;99.90;;;;;;5058943;28;20393;-71
2023/01/01 00:52:45;;;;;;;32.10;12.65;;;14.30;99.90;;;;;;5054188;28;20100;-72
2023/01/01 00:55:11;;;;;;;34.88;15.80;;;14.30;99.90;;;;;;5047984;28;20048;-72
2023/01/01 00:57:37;;;;;;;45.30;15.68;;;14.30;99.90;;;;;;5042316;28;20025;-72
2023/01/01 01:00:04;;;;;;;36.72;12.60;;;14.30;99.90;;;;;;5045383;28;20028;-72
2023/01/01 01:02:29;;;;;;;24.23;9.38;;;14.30;99.90;;;;;;5046545;28;20017;-72
2023/01/01 01:04:55;;;;;;;20.42;7.35;;;14.30;99.90;;;;;;5030459;28;20045;-72
2023/01/01 01:07:21;;;;;;;25.45;8.63;;;14.30;99.90;;;;;;5041410;28;20087;-72
2023/01/01 01:09:46;;;;;;;23.17;8.02;;;14.30;99.90;;;;;;5044657;28;20084;-71
2023/01/01 01:12:12;;;;;;;21.70;8.32;;;14.40;99.90;;;;;;5038278;28;20025;-72
2023/01/01 01:14:37;;;;;;;25.30;7.88;;;14.40;99.90;;;;;;5042141;28;20017;-72
2023/01/01 01:17:03;;;;;;;26.30;7.65;;;14.40;99.90;;;;;;5037712;28;20018;-72
2023/01/01 01:19:28;;;;;;;27.77;6.80;;;14.40;99.90;;;;;;5040005;28;20485;-72
2023/01/01 01:21:54;;;;;;;17.75;7.03;;;14.40;99.90;;;;;;5042434;28;20024;-71
2023/01/01 01:24:20;;;;;;;20.80;5.55;;;14.40;99.90;;;;;;5048216;28;20021;-72
2023/01/01 01:26:45;;;;;;;22.90;6.43;;;14.40;99.90;;;;;;5051534;28;20044;-71
2023/01/01 01:29:11;;;;;;;22.40;6.55;;;14.40;99.90;;;;;;5041447;28;20422;-72
2023/01/01 01:31:37;;;;;;;18.55;6.07;;;14.40;99.90;;;;;;5049537;28;20353;-72
2023/01/01 01:34:02;;;;;;;18.23;5.60;;;14.40;99.90;;;;;;5046925;28;20029;-72
2023/01/01 01:36:28;;;;;;;16.63;5.13;;;14.40;99.90;;;;;;5049217;28;20542;-72
2023/01/01 01:38:54;;;;;;;16.65;4.85;;;14.40;99.90;;;;;;5039514;28;20018;-72
2023/01/01 01:41:22;;;;;;;16.92;4.80;;;14.40;99.90;;;;;;5046039;28;20130;-72
2023/01/01 01:43:54;;;;;;;16.13;4.57;;;14.40;99.90;;;;;;5048227;28;20025;-72
2023/01/01 01:46:41;;;;;;;14.77;4.93;;;14.40;99.90;;;;;;5034973;28;20027;-72
2023/01/01 01:49:43;;;;;;;16.05;4.72;;;14.40;99.90;;;;;;5031941;28;20036;-72
2023/01/01 01:52:08;;;;;;;13.50;4.90;;;14.40;99.90;;;;;;4986407;28;20030;-72
2023/01/01 01:54:34;;;;;;;17.65;5.00;;;14.40;99.90;;;;;;4987693;28;20031;-72
2023/01/01 01:57:03;;;;;;;20.92;5.03;;;14.40;99.90;;;;;;4988213;28;20508;-71
2023/01/01 01:59:32;;;;;;;14.93;4.00;;;14.40;99.90;;;;;;4973985;28;20046;-72
2023/01/01 02:01:58;;;;;;;12.52;4.30;;;14.50;99.90;;;;;;4985901;28;20169;-72
2023/01/01 02:04:24;;;;;;;16.30;4.63;;;14.40;99.90;;;;;;4984254;28;20141;-72
2023/01/01 02:06:51;;;;;;;13.52;3.80;;;14.40;99.90;;;;;;4975607;28;20050;-73
2023/01/01 02:09:17;;;;;;;18.35;3.88;;;14.50;99.90;;;;;;4987362;28;20033;-72
2023/01/01 02:11:43;;;;;;;14.85;3.92;;;14.50;99.90;;;;;;4987034;28;20026;-72
2023/01/01 02:14:09;;;;;;;19.55;3.90;;;14.50;99.90;;;;;;4987535;28;20054;-72
2023/01/01 02:16:46;;;;;;;23.73;11.15;;;14.50;99.90;;;;;;4969856;28;20019;-72
2023/01/01 02:19:17;;;;;;;35.05;14.65;;;14.50;99.90;;;;;;4987584;28;20472;-73
2023/01/01 02:21:51;;;;;;;21.52;7.38;;;14.50;99.90;;;;;;4986646;28;20030;-72
2023/01/01 02:24:28;;;;;;;19.03;5.97;;;14.40;99.90;;;;;;4987452;28;20038;-72
2023/01/01 02:27:03;;;;;;;23.58;7.78;;;14.40;99.90;;;;;;5028442;28;20029;-72
2023/01/01 02:29:34;;;;;;;14.90;3.60;;;14.40;99.90;;;;;;5044026;28;20029;-72
2023/01/01 02:32:06;;;;;;;10.40;3.08;;;14.40;99.90;;;;;;5042650;28;20116;-72
2023/01/01 02:34:39;;;;;;;17.42;3.80;;;14.40;99.90;;;;;;5036417;28;20017;-72
2023/01/01 02:37:07;;;;;;;14.77;4.18;;;14.40;99.90;;;;;;5053250;28;20021;-72
2023/01/01 02:39:38;;;;;;;13.18;4.03;;;14.30;99.90;;;;;;5048475;28;20071;-73
2023/01/01 02:42:06;;;;;;;11.57;4.30;;;14.30;99.90;;;;;;5042167;28;20036;-73
2023/01/01 02:44:35;;;;;;;24.33;8.52;;;14.20;99.90;;;;;;5052942;28;20390;-73
2023/01/01 02:47:19;;;;;;;16.67;5.20;;;14.20;99.90;;;;;;5045299;28;20368;-73
2023/01/01 02:50:01;;;;;;;13.23;4.43;;;14.20;99.90;;;;;;5046981;28;20021;-72
2023/01/01 02:52:58;;;;;;;12.07;3.58;;;14.20;99.90;;;;;;5040034;28;20370;-72
2023/01/01 02:55:35;;;;;;;17.05;4.15;;;14.20;99.90;;;;;;5048874;28;20029;-72
2023/01/01 03:01:44;;;;;;;12.48;3.40;;;14.20;99.90;;;;;;5043724;28;20036;-72
2023/01/01 03:04:26;;;;;;;11.75;2.85;;;14.20;99.90;;;;;;5040220;28;20018;-72
2023/01/01 03:07:11;;;;;;;14.70;3.10;;;14.20;99.90;;;;;;5050899;28;20060;-73
2023/01/01 03:09:52;;;;;;;10.80;2.97;;;14.20;99.90;;;;;;5052268;28;20028;-72
2023/01/01 03:12:38;;;;;;;15.00;3.03;;;14.20;99.90;;;;;;5052446;28;20491;-72
2023/01/01 03:15:30;;;;;;;13.65;2.97;;;14.20;99.90;;;;;;5048737;28;20021;-72
2023/01/01 03:18:03;;;;;;;10.45;2.85;;;14.10;99.90;;;;;;5038035;28;20044;-72
2023/01/01 03:20:33;;;;;;;14.35;3.03;;;14.10;99.90;;;;;;5042656;28;20021;-73
2023/01/01 03:23:05;;;;;;;16.10;3.05;;;14.00;99.90;;;;;;5052523;28;20020;-72
2023/01/01 03:25:36;;;;;;;12.93;2.80;;;13.90;99.90;;;;;;5044681;28;20026;-72
2023/01/01 03:28:12;;;;;;;16.55;3.20;;;13.90;99.90;;;;;;5037845;28;20049;-73
2023/01/01 03:30:41;;;;;;;14.10;2.97;;;13.90;99.90;;;;;;5045066;28;20445;-72
2023/01/01 03:33:26;;;;;;;17.38;3.05;;;13.90;99.90;;;;;;5038010;28;20037;-73
2023/01/01 03:35:58;;;;;;;14.10;2.92;;;13.90;99.90;;;;;;5039074;28;20017;-73
2023/01/01 03:38:47;;;;;;;10.20;2.42;;;13.80;99.90;;;;;;5041980;28;20029;-72
2023/01/01 03:41:28;;;;;;;9.02;2.33;;;13.80;99.90;;;;;;5037229;28;20025;-72
2023/01/01 03:44:14;;;;;;;16.25;2.40;;;13.80;99.90;;;;;;5052099;28;20360;-73
2023/01/01 03:46:40;;;;;;;10.95;2.40;;;13.80;99.90;;;;;;5043933;28;20120;-72
2023/01/01 03:49:09;;;;;;;7.88;2.33;;;13.70;99.90;;;;;;5051587;28;20281;-72
2023/01/01 03:51:58;;;;;;;10.98;2.28;;;13.70;99.90;;;;;;5065493;28;20064;-72
2023/01/01 03:55:01;;;;;;;11.40;1.83;;;13.60;99.90;;;;;;5032099;28;20054;-72
2023/01/01 03:57:56;;;;;;;10.07;1.90;;;13.60;99.90;;;;;;5049841;28;20037;-73
2023/01/01 04:00:26;;;;;;;8.35;1.65;;;13.50;99.90;;;;;;5051373;28;20383;-72
2023/01/01 04:03:05;;;;;;;9.63;1.90;;;13.40;99.90;;;;;;5050220;28;20029;-72
2023/01/01 04:05:35;;;;;;;8.30;1.67;;;13.30;99.90;;;;;;5049888;28;20123;-72
2023/01/01 04:08:02;;;;;;;6.68;1.75;;;13.30;99.90;;;;;;5050953;28;20020;-72
2023/01/01 04:10:31;;;;;;;14.23;2.10;;;13.30;99.90;;;;;;5050748;28;20074;-72
2023/01/01 04:12:57;;;;;;;11.40;2.45;;;13.20;99.90;;;;;;5051472;28;20070;-72
2023/01/01 04:15:26;;;;;;;10.43;2.13;;;13.20;99.90;;;;;;5037684;28;20421;-73
2023/01/01 04:17:52;;;;;;;9.63;2.10;;;13.20;99.90;;;;;;5042902;28;20375;-72
2023/01/01 04:20:19;;;;;;;10.88;2.10;;;13.10;99.90;;;;;;5031711;28;20033;-72
2023/01/01 04:22:45;;;;;;;13.73;2.30;;;13.10;99.90;;;;;;5037621;28;20025;-73
2023/01/01 04:25:11;;;;;;;9.77;1.90;;;13.10;99.90;;;;;;5049409;28;20031;-73
2023/01/01 04:27:38;;;;;;;13.05;2.10;;;13.10;99.90;;;;;;5050690;28;20505;-72
2023/01/01 04:30:07;;;;;;;12.52;2.50;;;13.00;99.90;;;;;;5049803;28;20017;-73
2023/01/01 04:32:33;;;;;;;15.07;2.58;;;13.00;99.90;;;;;;5037038;28;20099;-72
2023/01/01 04:34:59;;;;;;;10.23;2.40;;;13.00;99.90;;;;;;5051511;28;20028;-72
2023/01/01 04:37:25;;;;;;;11.52;2.90;;;12.90;99.90;;;;;;5050958;28;20036;-73
2023/01/01 04:39:50;;;;;;;13.00;2.85;;;12.90;99.90;;;;;;5051035;28;20021;-73
2023/01/01 04:42:16;;;;;;;17.33;3.40;;;12.90;99.90;;;;;;5049664;28;20387;-72
2023/01/01 04:44:42;;;;;;;12.60;2.42;;;12.90;99.90;;;;;;5049930;28;20067;-72
2023/01/01 04:47:07;;;;;;;14.93;2.97;;;12.90;99.90;;;;;;5050380;28;20064;-72
2023/01/01 04:49:33;;;;;;;17.85;2.60;;;12.80;99.90;;;;;;5049183;28;20116;-72
2023/01/01 04:51:58;;;;;;;16.00;3.10;;;12.80;99.90;;;;;;5050286;28;20059;-73
2023/01/01 04:54:24;;;;;;;20.63;3.05;;;12.80;99.90;;;;;;5050554;28;20036;-72
2023/01/01 04:56:50;;;;;;;14.68;3.13;;;12.80;99.90;;;;;;5050260;28;20333;-72
2023/01/01 04:59:15;;;;;;;20.35;2.90;;;12.80;99.90;;;;;;5031207;28;20390;-72
2023/01/01 05:01:41;;;;;;;15.65;2.70;;;12.70;99.90;;;;;;5048260;28;20071;-73
2023/01/01 05:04:06;;;;;;;15.20;2.53;;;12.70;99.90;;;;;;5045899;28;20051;-73
2023/01/01 05:06:32;;;;;;;20.05;2.88;;;12.70;99.90;;;;;;5050340;28;20487;-72
2023/01/01 05:08:59;;;;;;;12.52;2.63;;;12.70;99.90;;;;;;5049312;28;20029;-72
2023/01/01 05:11:29;;;;;;;12.75;2.90;;;12.60;99.90;;;;;;5050454;28;20017;-72
2023/01/01 05:13:57;;;;;;;17.33;2.92;;;12.60;99.90;;;;;;5043410;28;20030;-72
2023/01/01 05:16:25;;;;;;;17.23;2.70;;;12.60;99.90;;;;;;5040611;28;20021;-72
2023/01/01 05:18:51;;;;;;;13.52;2.78;;;12.60;99.90;;;;;;5049937;28;20029;-72
2023/01/01 05:21:26;;;;;;;20.50;3.17;;;12.60;99.90;;;;;;5050119;28;20033;-72
2023/01/01 05:23:58;;;;;;;19.08;2.72;;;12.60;99.90;;;;;;5031096;28;20534;-72
2023/01/01 05:26:27;;;;;;;15.20;2.63;;;12.60;99.90;;;;;;5049860;28;20099;-72
2023/01/01 05:28:52;;;;;;;12.65;2.30;;;12.60;99.90;;;;;;5049951;28;20032;-72
2023/01/01 05:31:20;;;;;;;15.38;2.53;;;12.60;99.90;;;;;;5043514;28;20025;-72
2023/01/01 05:33:46;;;;;;;12.30;2.40;;;12.60;99.90;;;;;;5043197;28;20055;-72
2023/01/01 05:36:18;;;;;;;14.88;2.53;;;12.50;99.90;;;;;;5029213;28;20040;-73
2023/01/01 05:38:44;;;;;;;10.27;2.47;;;12.50;99.90;;;;;;5028691;28;20040;-73
2023/01/01 05:41:12;;;;;;;16.55;2.60;;;12.50;99.90;;;;;;5051273;28;20028;-73
2023/01/01 05:43:38;;;;;;;16.67;2.25;;;12.50;99.90;;;;;;5051955;28;20079;-72
2023/01/01 05:46:10;;;;;;;14.23;2.30;;;12.50;99.90;;;;;;5048293;28;20021;-73
2023/01/01 05:48:36;;;;;;;12.63;2.45;;;12.50;99.90;;;;;;5039499;28;20032;-72
2023/01/01 05:51:06;;;;;;;21.98;2.58;;;12.50;99.90;;;;;;5049800;28;20021;-72
2023/01/01 05:53:32;;;;;;;17.25;3.17;;;12.50;99.90;;;;;;5048607;28;20026;-72
2023/01/01 05:55:58;;;;;;;19.40;2.72;;;12.50;99.90;;;;;;5049546;28;20026;-72
2023/01/01 05:58:25;;;;;;;22.35;3.03;;;12.40;99.90;;;;;;5049910;28;20470;-73
2023/01/01 06:00:51;;;;;;;18.55;2.83;;;12.40;99.90;;;;;;5049971;28;20024;-72
2023/01/01 06:03:17;;;;;;;17.55;2.08;;;12.40;99.90;;;;;;5035926;28;20025;-73
2023/01/01 06:05:43;;;;;;;15.40;2.60;;;12.40;99.90;;;;;;5053044;28;20057;-73
2023/01/01 06:08:08;;;;;;;16.35;2.83;;;12.40;99.90;;;;;;5045837;28;20428;-72
2023/01/01 06:10:34;;;;;;;19.85;2.60;;;12.40;99.90;;;;;;5031945;28;20026;-73
2023/01/01 06:12:59;;;;;;;19.65;2.72;;;12.40;99.90;;;;;;5048858;28;20021;-72
2023/01/01 06:15:26;;;;;;;19.63;3.20;;;12.40;99.90;;;;;;5053570;28;20061;-72
2023/01/01 06:17:51;;;;;;;21.60;3.22;;;12.30;99.90;;;;;;5048190;28;20099;-72
2023/01/01 06:20:17;;;;;;;15.65;2.70;;;12.30;99.90;;;;;;5048065;28;20021;-73
2023/01/01 06:22:43;;;;;;;20.88;3.28;;;12.30;99.90;;;;;;5049390;28;20025;-72
2023/01/01 06:25:09;;;;;;;20.38;3.15;;;12.30;99.90;;;;;;5047251;28;20060;-72
2023/01/01 06:27:35;;;;;;;19.67;3.05;;;12.30;99.90;;;;;;5045205;28;20390;-72
2023/01/01 06:30:03;;;;;;;20.88;2.78;;;12.30;99.90;;;;;;5047898;28;20018;-72
2023/01/01 06:32:29;;;;;;;16.42;2.83;;;12.30;99.90;;;;;;5049681;28;20079;-72
2023/01/01 06:34:54;;;;;;;22.02;2.78;;;12.30;99.90;;;;;;5044910;28;20487;-72
2023/01/01 06:37:20;;;;;;;18.30;2.95;;;12.20;99.90;;;;;;5033471;28;20437;-72
2023/01/01 06:39:45;;;;;;;21.00;3.03;;;12.20;99.90;;;;;;5027013;28;20110;-72
2023/01/01 06:42:11;;;;;;;23.42;3.25;;;12.30;99.90;;;;;;5045431;28;20385;-72
2023/01/01 06:44:36;;;;;;;16.63;2.72;;;12.20;99.90;;;;;;5052994;28;20431;-72
2023/01/01 06:47:02;;;;;;;17.73;3.05;;;12.20;99.90;;;;;;5052587;28;20031;-72
2023/01/01 06:49:28;;;;;;;18.25;2.92;;;12.20;99.90;;;;;;5051040;28;20470;-72
2023/01/01 06:51:54;;;;;;;22.00;3.28;;;12.20;99.90;;;;;;5052378;28;20482;-72
2023/01/01 06:54:19;;;;;;;17.58;2.70;;;12.20;99.90;;;;;;5051651;28;20040;-73
2023/01/01 06:56:45;;;;;;;23.23;3.42;;;12.20;99.90;;;;;;5052806;28;20021;-73
2023/01/01 06:59:10;;;;;;;18.38;2.90;;;12.20;99.90;;;;;;5047152;28;20063;-72
2023/01/01 07:01:40;;;;;;;20.80;3.00;;;12.10;99.90;;;;;;5031010;28;20033;-72
2023/01/01 07:04:10;;;;;;;17.70;2.85;;;12.10;99.90;;;;;;5049254;28;20025;-72
2023/01/01 07:06:37;;;;;;;15.85;2.80;;;12.10;99.90;;;;;;5052011;28;20418;-73
2023/01/01 07:09:03;;;;;;;19.45;2.65;;;12.10;99.90;;;;;;5052603;28;20353;-72
2023/01/01 07:11:29;;;;;;;25.08;2.90;;;12.10;99.90;;;;;;5049066;28;20039;-72
2023/01/01 07:13:55;;;;;;;19.05;2.70;;;12.10;99.90;;;;;;5046725;28;20096;-72
2023/01/01 07:16:22;;;;;;;19.65;2.75;;;12.10;99.90;;;;;;5052342;28;20017;-72
2023/01/01 07:18:49;;;;;;;24.67;3.10;;;12.00;99.90;;;;;;5050986;28;20025;-73
2023/01/01 07:21:26;;;;;;;19.63;2.80;;;12.00;99.90;;;;;;5047635;28;20056;-72
2023/01/01 07:23:55;;;;;;;24.20;3.28;;;12.00;99.90;;;;;;5040401;28;20386;-72
2023/01/01 07:26:24;;;;;;;21.58;2.70;;;12.00;99.90;;;;;;5051409;28;20100;-72
2023/01/01 07:28:50;;;;;;;16.70;2.40;;;12.00;99.90;;;;;;5052112;28;20487;-72
2023/01/01 07:31:16;;;;;;;19.73;2.75;;;11.90;99.90;;;;;;5044027;28;20079;-72
2023/01/01 07:33:41;;;;;;;12.70;2.30;;;11.90;99.90;;;;;;5044864;28;20037;-72
2023/01/01 07:36:07;;;;;;;14.10;2.03;;;11.90;99.90;;;;;;5050341;28;20021;-72
2023/01/01 07:38:33;;;;;;;15.73;2.90;;;11.90;99.90;;;;;;5052099;28;20386;-72
2023/01/01 07:40:58;;;;;;;20.27;2.38;;;11.90;99.90;;;;;;5050495;28;20031;-72
2023/01/01 07:43:24;;;;;;;19.13;2.47;;;11.80;99.90;;;;;;5051563;28;20025;-71
2023/01/01 07:45:50;;;;;;;19.08;2.67;;;11.90;99.90;;;;;;5051479;28;20475;-73
2023/01/01 07:48:16;;;;;;;23.88;2.58;;;11.80;99.90;;;;;;5052933;28;20027;-73
2023/01/01 07:50:42;;;;;;;12.40;2.33;;;11.80;99.90;;;;;;5057386;28;20017;-73
2023/01/01 07:53:08;;;;;;;15.88;2.28;;;11.80;99.90;;;;;;5053237;28;20112;-73
2023/01/01 07:55:34;;;;;;;18.05;2.47;;;11.80;99.90;;;;;;5047941;28;20038;-73
2023/01/01 07:58:00;;;;;;;13.13;2.40;;;11.80;99.90;;;;;;5047167;28;20045;-72
2023/01/01 08:00:26;;;;;;;19.33;2.65;;;11.80;99.90;;;;;;5048028;28;20131;-72
2023/01/01 08:02:51;;;;;;;21.17;2.30;;;11.80;99.90;;;;;;5045386;28;20045;-72
2023/01/01 08:05:17;;;;;;;16.65;2.38;;;11.80;99.90;;;;;;5042253;28;20041;-72
2023/01/01 08:07:48;;;;;;;21.30;2.47;;;11.80;99.90;;;;;;5043598;28;20371;-72
2023/01/01 08:10:14;;;;;;;19.10;2.55;;;11.80;99.90;;;;;;5043012;28;20406;-72
2023/01/01 08:12:40;;;;;;;20.42;2.40;;;11.80;99.90;;;;;;5030068;28;20030;-72
2023/01/01 08:15:07;;;;;;;19.10;2.35;;;11.80;99.90;;;;;;5030914;28;20499;-72
2023/01/01 08:17:32;;;;;;;21.90;2.78;;;11.80;99.90;;;;;;5048211;28;20029;-72
2023/01/01 08:19:58;;;;;;;18.77;2.58;;;11.80;99.90;;;;;;5049272;28;20028;-73
2023/01/01 08:22:24;;;;;;;18.30;2.80;;;11.70;99.90;;;;;;5046750;28;20030;-72
2023/01/01 08:24:49;;;;;;;16.80;2.78;;;11.70;99.90;;;;;;5049088;28;20474;-72
2023/01/01 08:27:16;;;;;;;16.73;2.15;;;11.70;99.90;;;;;;5049608;28;20462;-72
2023/01/01 08:29:43;;;;;;;21.75;2.70;;;11.70;99.90;;;;;;5048793;28;20657;-73
2023/01/01 08:32:09;;;;;;;13.13;1.95;;;11.70;99.90;;;;;;5049234;28;20371;-72
2023/01/01 08:34:34;;;;;;;23.27;2.70;;;11.60;99.90;;;;;;5048041;28;20104;-72
2023/01/01 08:37:00;;;;;;;19.77;2.67;;;11.60;99.90;;;;;;5049019;28;20056;-72
2023/01/01 08:39:25;;;;;;;16.30;2.78;;;11.60;99.90;;;;;;5048765;28;20024;-72
2023/01/01 08:41:51;;;;;;;17.35;2.33;;;11.60;99.90;;;;;;5050589;28;20017;-73
2023/01/01 08:44:18;;;;;;;20.17;2.47;;;11.60;99.90;;;;;;5050246;28;20079;-73
2023/01/01 08:46:43;;;;;;;17.88;2.90;;;11.60;99.90;;;;;;5057098;28;20486;-72
2023/01/01 08:49:09;;;;;;;21.60;2.78;;;11.60;99.90;;;;;;5034689;28;20029;-72
2023/01/01 08:51:35;;;;;;;19.58;3.05;;;11.60;99.90;;;;;;5048883;28;20082;-72
2023/01/01 08:54:00;;;;;;;14.90;2.42;;;11.60;99.90;;;;;;5048475;28;20421;-72
2023/01/01 08:56:26;;;;;;;18.80;2.92;;;11.60;99.90;;;;;;5050359;28;20116;-72
2023/01/01 08:58:51;;;;;;;21.63;3.00;;;11.70;99.90;;;;;;5052763;28;20466;-73
2023/01/01 09:01:20;;;;;;;14.35;2.53;;;11.70;99.90;;;;;;5060543;28;20482;-72
2023/01/01 09:03:46;;;;;;;18.65;2.70;;;11.70;99.90;;;;;;5050577;28;20048;-72
2023/01/01 09:06:12;;;;;;;22.40;2.95;;;11.70;99.90;;;;;;5050534;28;20494;-72
2023/01/01 09:08:38;;;;;;;19.48;2.67;;;11.70;99.90;;;;;;5048620;28;20486;-72
2023/01/01 09:11:03;;;;;;;20.05;2.30;;;11.70;99.90;;;;;;5050027;28;20025;-72
2023/01/01 09:13:30;;;;;;;16.05;2.53;;;11.70;99.90;;;;;;5048718;28;20571;-73
2023/01/01 09:15:56;;;;;;;14.05;2.50;;;11.70;99.90;;;;;;5043021;28;20013;-72
2023/01/01 09:18:22;;;;;;;17.48;2.72;;;11.70;99.90;;;;;;5030589;28;20017;-73
2023/01/01 09:20:47;;;;;;;18.88;2.70;;;11.70;99.90;;;;;;5048692;28;20038;-73
2023/01/01 09:23:13;;;;;;;14.73;2.42;;;11.80;99.90;;;;;;5049773;28;20029;-73
2023/01/01 09:25:39;;;;;;;15.98;2.10;;;11.70;99.90;;;;;;5048363;28;20059;-73
2023/01/01 09:28:07;;;;;;;19.55;2.88;;;11.80;99.90;;;;;;5049874;28;20044;-73
2023/01/01 09:30:34;;;;;;;16.00;2.30;;;11.80;99.90;;;;;;5052769;28;20021;-71
2023/01/01 09:33:01;;;;;;;13.43;2.30;;;11.80;99.90;;;;;;5042123;28;20048;-73
2023/01/01 09:35:27;;;;;;;24.58;2.67;;;11.80;99.90;;;;;;5038974;28;20101;-73
2023/01/01 09:37:53;;;;;;;19.27;2.45;;;11.90;99.90;;;;;;5044252;28;20104;-73
2023/01/01 09:40:42;;;;;;;16.73;2.83;;;11.90;99.90;;;;;;5043178;28;20063;-73
2023/01/01 09:43:35;;;;;;;21.15;2.47;;;12.00;99.90;;;;;;5043598;28;20545;-73
2023/01/01 09:46:05;;;;;;;15.05;2.40;;;12.10;99.90;;;;;;5039117;28;20029;-73
2023/01/01 09:48:31;;;;;;;14.00;2.42;;;12.10;99.90;;;;;;5036972;28;20375;-73
2023/01/01 09:50:59;;;;;;;12.32;2.03;;;12.20;99.90;;;;;;5038236;28;20025;-73
2023/01/01 09:53:51;;;;;;;15.77;2.20;;;12.30;99.90;;;;;;5044042;28;20043;-73
2023/01/01 09:56:28;;;;;;;13.45;2.70;;;12.40;99.90;;;;;;5039354;28;20061;-72
2023/01/01 09:58:57;;;;;;;18.48;2.60;;;12.40;99.90;;;;;;5048163;28;20024;-73
2023/01/01 10:01:46;;;;;;;21.70;2.58;;;12.50;99.90;;;;;;5040991;28;20524;-73
2023/01/01 10:04:23;;;;;;;21.13;3.05;;;12.50;99.90;;;;;;5044359;28;20036;-73
2023/01/01 10:07:12;;;;;;;15.32;2.70;;;12.50;99.90;;;;;;5031298;28;20041;-73
2023/01/01 10:09:46;;;;;;;16.48;2.83;;;12.60;99.90;;;;;;5042772;28;20040;-72
2023/01/01 10:12:42;;;;;;;14.68;2.42;;;12.50;99.90;;;;;;5041503;28;20025;-73
2023/01/01 10:15:28;;;;;;;;;;;12.50;99.90;;;;;;5048511;28;20112;-73
2023/01/01 10:17:57;;;;;;;13.40;2.40;;;12.50;99.90;;;;;;5037750;28;19959;-73
2023/01/01 10:20:26;;;;;;;17.45;2.53;;;12.40;99.90;;;;;;5047067;28;20125;-73
2023/01/01 10:22:56;;;;;;;20.25;2.60;;;12.50;99.90;;;;;;5044392;28;20033;-73
2023/01/01 10:25:28;;;;;;;17.67;3.03;;;12.50;99.90;;;;;;5048704;28;20037;-73
2023/01/01 10:28:10;;;;;;;18.75;2.47;;;12.40;99.90;;;;;;5049034;28;20078;-73
2023/01/01 10:30:35;;;;;;;20.73;2.72;;;12.50;99.90;;;;;;5044147;28;20033;-73
2023/01/01 10:33:07;;;;;;;21.10;3.10;;;12.50;99.90;;;;;;5051616;28;20032;-73
2023/01/01 10:35:38;;;;;;;18.77;3.13;;;12.50;99.90;;;;;;5055911;28;20032;-73
2023/01/01 10:38:04;;;;;;;15.13;2.72;;;12.60;99.90;;;;;;5029724;28;20056;-73
2023/01/01 10:40:31;;;;;;;13.02;2.13;;;12.60;99.90;;;;;;5042312;28;20184;-73
2023/01/01 10:42:58;;;;;;;14.80;2.65;;;12.70;99.90;;;;;;5045345;28;20056;-73
2023/01/01 10:45:35;;;;;;;25.42;3.15;;;12.80;99.90;;;;;;5048158;28;20082;-72
2023/01/01 10:48:31;;;;;;;23.70;3.50;;;12.80;99.90;;;;;;5055861;28;20048;-71
2023/01/01 10:50:58;;;;;;;;;;;12.80;99.90;;;;;;5051120;28;20086;-71
2023/01/01 10:53:36;;;;;;;19.63;2.80;;;12.80;99.90;;;;;;5070501;28;19909;-71
2023/01/01 10:56:05;;;;;;;21.13;2.90;;;12.80;99.90;;;;;;5060247;28;20048;-71
2023/01/01 10:58:51;;;;;;;15.68;2.95;;;12.80;99.90;;;;;;5071238;28;20025;-69
2023/01/01 11:01:16;;;;;;;17.63;2.97;;;12.80;99.90;;;;;;5044977;28;20032;-68
2023/01/01 11:04:14;;;;;;;15.60;2.70;;;12.80;99.90;;;;;;5067056;28;20017;-69
2023/01/01 11:06:45;;;;;;;16.58;2.92;;;12.80;99.90;;;;;;5041933;28;20044;-70
2023/01/01 11:09:35;;;;;;;12.23;2.40;;;12.80;99.90;;;;;;5054618;28;20069;-69
2023/01/01 11:12:04;;;;;;;23.23;3.65;;;12.80;99.90;;;;;;5041916;28;20042;-69
2023/01/01 11:14:37;;;;;;;13.57;2.85;;;12.80;99.90;;;;;;5050856;28;20025;-69
2023/01/01 11:17:03;;;;;;;10.30;2.65;;;12.80;99.90;;;;;;5050991;28;20037;-68
2023/01/01 11:19:33;;;;;;;17.33;2.83;;;12.70;99.90;;;;;;5041116;28;20020;-69
2023/01/01 11:21:59;;;;;;;13.30;2.55;;;12.70;99.90;;;;;;5061574;28;20042;-68
2023/01/01 11:24:30;;;;;;;17.85;2.83;;;12.70;99.90;;;;;;5063326;28;20095;-70
2023/01/01 11:27:18;;;;;;;17.15;3.00;;;12.70;99.90;;;;;;5060479;28;20032;-68
2023/01/01 11:29:44;;;;;;;16.58;3.17;;;12.60;99.90;;;;;;5065969;28;20044;-70
2023/01/01 11:32:19;;;;;;;14.95;2.67;;;12.60;99.90;;;;;;5062977;28;20083;-70
2023/01/01 11:34:49;;;;;;;16.02;2.72;;;12.60;99.90;;;;;;5061933;28;20028;-70
2023/01/01 11:37:32;;;;;;;18.38;2.90;;;12.60;99.90;;;;;;5069911;28;20034;-69
2023/01/01 11:39:59;;;;;;;16.15;3.05;;;12.60;99.90;;;;;;5057790;28;20048;-69
2023/01/01 11:42:32;;;;;;;20.05;3.22;;;12.60;99.90;;;;;;5064458;28;20043;-72
2023/01/01 11:45:33;;;;;;;15.73;3.05;;;12.60;99.90;;;;;;5061462;28;20021;-70
2023/01/01 11:48:01;;;;;;;16.70;3.15;;;12.60;99.90;;;;;;5060369;28;20092;-69
2023/01/01 11:50:36;;;;;;;16.35;2.80;;;12.60;99.90;;;;;;5065263;28;20104;-69
2023/01/01 11:53:21;;;;;;;17.52;3.08;;;12.60;99.90;;;;;;5069924;28;20055;-69
2023/01/01 11:56:05;;;;;;;20.90;3.30;;;12.60;99.90;;;;;;5064181;28;20505;-69
2023/01/01 11:58:45;;;;;;;15.65;2.67;;;12.60;99.90;;;;;;5060723;28;20020;-70
2023/01/01 12:01:15;;;;;;;12.70;2.80;;;12.60;99.90;;;;;;5055779;28;20032;-68
2023/01/01 12:04:05;;;;;;;14.82;3.00;;;12.60;99.90;;;;;;5065911;28;20029;-70
2023/01/01 12:06:51;;;;;;;11.82;2.50;;;12.50;99.90;;;;;;5058724;28;20512;-69
2023/01/01 12:09:28;;;;;;;15.57;4.00;;;12.50;99.90;;;;;;5063779;28;20074;-69
2023/01/01 12:12:04;;;;;;;25.27;6.00;;;12.50;99.90;;;;;;5066188;28;20055;-67
2023/01/01 12:14:43;;;;;;;17.70;4.18;;;12.50;99.90;;;;;;5059744;28;20019;-67
2023/01/01 12:17:24;;;;;;;16.73;3.10;;;12.50;99.90;;;;;;5065210;28;20524;-66
2023/01/01 12:20:03;;;;;;;20.98;3.88;;;12.50;99.90;;;;;;5065419;28;20024;-69
2023/01/01 12:22:29;;;;;;;15.93;3.17;;;12.50;99.90;;;;;;5053508;28;20482;-69
2023/01/01 12:24:56;;;;;;;20.20;3.17;;;12.50;99.90;;;;;;5046188;28;20262;-68
2023/01/01 12:27:40;;;;;;;15.65;3.42;;;12.50;99.90;;;;;;5039184;28;20022;-67
2023/01/01 12:30:18;;;;;;;19.02;3.03;;;12.50;99.90;;;;;;5048975;28;20025;-72
2023/01/01 12:33:00;;;;;;;17.08;3.08;;;12.50;99.90;;;;;;5049307;28;20020;-73
2023/01/01 12:35:44;;;;;;;21.63;3.40;;;12.50;99.90;;;;;;5062616;28;20029;-72
2023/01/01 12:38:21;;;;;;;15.20;3.22;;;12.60;99.90;;;;;;5052119;28;20025;-72
2023/01/01 12:41:09;;;;;;;19.08;2.95;;;12.60;99.90;;;;;;5070072;28;20477;-71
2023/01/01 12:44:06;;;;;;;18.88;2.88;;;12.50;99.90;;;;;;5054502;28;20075;-71
2023/01/01 12:46:53;;;;;;;12.73;3.03;;;12.50;99.90;;;;;;5065560;28;20124;-72
2023/01/01 12:50:13;;;;;;;16.92;3.50;;;12.50;99.90;;;;;;5046173;28;20371;-72
2023/01/01 12:52:44;;;;;;;15.75;2.70;;;12.50;99.90;;;;;;4984514;28;20070;-72
2023/01/01 12:55:25;;;;;;;23.08;3.70;;;12.50;99.90;;;;;;4986818;28;20054;-72
2023/01/01 12:58:08;;;;;;;17.63;2.85;;;12.50;99.90;;;;;;4986085;28;20033;-73